Time;durP1;ratioP1;P1;durP2;ratioP2;P2;SDS_P1;SDS_P2;PMS_P1;PMS_P2;Temp;Humidity;BMP_temperature;BMP_pressure;BME280_temperature;BME280_humidity;BME280_pressure;Samples;Min_cycle;Max_cycle;Signal;HPM_P1;HPM_P2
2020/12/01 00:01:29;;;;;;;35.85;18.50;;;2.70;99.90;;;;;;5051756;28;20388;-76
2020/12/01 00:03:54;;;;;;;33.08;17.95;;;2.70;99.90;;;;;;5051891;28;20025;-76
2020/12/01 00:06:20;;;;;;;37.75;19.42;;;2.70;99.90;;;;;;5062504;28;20427;-75
2020/12/01 00:08:45;;;;;;;35.65;17.33;;;2.80;99.90;;;;;;5070001;28;20036;-76
2020/12/01 00:11:14;;;;;;;34.67;18.02;;;2.70;99.90;;;;;;5071477;28;20025;-76
2020/12/01 00:13:41;;;;;;;35.95;17.88;;;2.80;99.90;;;;;;5069897;28;20028;-76
2020/12/01 00:16:10;;;;;;;31.92;17.13;;;2.80;99.90;;;;;;5064162;28;20100;-76
2020/12/01 00:18:35;;;;;;;38.53;17.30;;;2.80;99.90;;;;;;5051405;28;20060;-76
2020/12/01 00:21:01;;;;;;;33.88;18.20;;;2.80;99.90;;;;;;5051099;28;20114;-76
2020/12/01 00:23:27;;;;;;;32.78;18.17;;;2.80;99.90;;;;;;5049721;28;20860;-76
2020/12/01 00:25:53;;;;;;;40.25;18.63;;;2.80;99.90;;;;;;5053339;28;20033;-76
2020/12/01 00:28:18;;;;;;;37.00;17.63;;;2.80;99.90;;;;;;5070843;28;20036;-76
2020/12/01 00:30:44;;;;;;;40.08;19.20;;;2.80;99.90;;;;;;5069903;28;20036;-75
2020/12/01 00:33:10;;;;;;;38.03;20.55;;;2.80;99.90;;;;;;5071067;28;20079;-76
2020/12/01 00:35:36;;;;;;;41.95;19.15;;;2.80;99.90;;;;;;5064944;28;20017;-76
2020/12/01 00:38:02;;;;;;;31.85;18.48;;;2.80;99.90;;;;;;5049904;28;20031;-76
2020/12/01 00:40:27;;;;;;;47.33;20.25;;;2.90;99.90;;;;;;5050764;28;20036;-76
2020/12/01 00:42:53;;;;;;;44.38;20.90;;;2.90;99.90;;;;;;5049628;28;20051;-76
2020/12/01 00:45:19;;;;;;;39.60;20.98;;;2.90;99.90;;;;;;5051111;28;20037;-77
2020/12/01 00:47:44;;;;;;;47.58;20.48;;;2.90;99.90;;;;;;5071080;28;20040;-76
2020/12/01 00:50:14;;;;;;;43.28;20.00;;;2.90;99.90;;;;;;5069112;28;20492;-76
2020/12/01 00:52:40;;;;;;;33.83;19.40;;;2.90;99.90;;;;;;5070379;28;20392;-76
2020/12/01 00:55:06;;;;;;;42.22;20.10;;;2.90;99.90;;;;;;5069402;28;20031;-76
2020/12/01 00:57:31;;;;;;;47.45;21.05;;;2.90;99.90;;;;;;5053343;28;20442;-76
2020/12/01 00:59:57;;;;;;;44.28;22.30;;;2.90;99.90;;;;;;5050880;28;20108;-76
2020/12/01 01:02:22;;;;;;;45.20;21.48;;;2.90;99.90;;;;;;5049566;28;20082;-76
2020/12/01 01:04:48;;;;;;;39.83;21.20;;;2.90;99.90;;;;;;5049372;28;20485;-76
2020/12/01 01:07:14;;;;;;;36.58;20.00;;;3.00;99.90;;;;;;5069025;28;20154;-76
2020/12/01 01:09:39;;;;;;;52.47;24.45;;;3.00;99.90;;;;;;5070690;28;20028;-76
2020/12/01 01:12:05;;;;;;;42.65;21.98;;;3.00;99.90;;;;;;5069211;28;20048;-75
2020/12/01 01:14:30;;;;;;;44.83;22.30;;;3.00;99.90;;;;;;5070621;28;20021;-76
2020/12/01 01:16:56;;;;;;;44.05;20.45;;;3.00;99.90;;;;;;5056424;28;20546;-76
2020/12/01 01:19:21;;;;;;;54.50;23.35;;;3.00;99.90;;;;;;5050678;28;20025;-76
2020/12/01 01:21:47;;;;;;;46.85;21.75;;;3.00;99.90;;;;;;5050557;28;20033;-76
2020/12/01 01:24:15;;;;;;;47.53;22.23;;;3.00;99.90;;;;;;5049083;28;20028;-76
2020/12/01 01:26:49;;;;;;;50.25;25.15;;;3.00;99.90;;;;;;5059500;28;20108;-76
2020/12/01 01:29:15;;;;;;;43.30;22.55;;;3.00;99.90;;;;;;5069312;28;20024;-76
2020/12/01 01:31:41;;;;;;;42.67;21.73;;;3.00;99.90;;;;;;5070448;28;20051;-76
2020/12/01 01:34:06;;;;;;;45.58;23.40;;;3.10;99.90;;;;;;5070076;28;20017;-76
2020/12/01 01:36:33;;;;;;;46.00;22.80;;;3.10;99.90;;;;;;5056897;28;20033;-76
2020/12/01 01:38:59;;;;;;;50.70;21.33;;;3.10;99.90;;;;;;5050411;28;20055;-76
2020/12/01 01:41:27;;;;;;;40.80;21.40;;;3.10;99.90;;;;;;5048812;28;20027;-76
2020/12/01 01:43:53;;;;;;;42.00;21.40;;;3.10;99.90;;;;;;5048886;28;20055;-76
2020/12/01 01:46:42;;;;;;;44.03;21.45;;;3.10;99.90;;;;;;5057321;28;20445;-76
2020/12/01 01:49:14;;;;;;;45.47;21.65;;;3.10;99.90;;;;;;5069226;28;20055;-76
2020/12/01 01:51:46;;;;;;;40.42;21.42;;;3.10;99.90;;;;;;5069855;28;20053;-76
2020/12/01 01:54:12;;;;;;;43.60;22.42;;;3.10;99.90;;;;;;5070117;28;20029;-76
2020/12/01 01:56:41;;;;;;;51.55;22.17;;;3.10;99.90;;;;;;5061415;28;20422;-76
2020/12/01 01:59:08;;;;;;;42.85;22.23;;;3.10;99.90;;;;;;5049913;28;20481;-76
2020/12/01 02:01:33;;;;;;;50.95;21.98;;;3.10;99.90;;;;;;5049936;28;20032;-76
2020/12/01 02:04:03;;;;;;;42.22;22.17;;;3.10;99.90;;;;;;5048584;28;20022;-76
2020/12/01 02:06:53;;;;;;;43.35;22.02;;;3.10;99.90;;;;;;5061828;28;20369;-76
2020/12/01 02:09:26;;;;;;;55.00;23.15;;;3.10;99.90;;;;;;5068936;28;20032;-76
2020/12/01 02:11:52;;;;;;;39.17;21.25;;;3.10;99.90;;;;;;5068769;28;20029;-76
2020/12/01 02:14:33;;;;;;;42.08;22.38;;;3.10;99.90;;;;;;5069466;28;20104;-76
2020/12/01 02:17:11;;;;;;;49.33;23.45;;;3.10;99.90;;;;;;5055399;28;20555;-76
2020/12/01 02:19:37;;;;;;;46.83;23.10;;;3.10;99.90;;;;;;5051049;28;20113;-76
2020/12/01 02:22:03;;;;;;;47.85;23.85;;;3.10;99.90;;;;;;5052299;28;20056;-76
2020/12/01 02:24:31;;;;;;;55.28;23.90;;;3.10;99.90;;;;;;5053444;28;20047;-76
2020/12/01 02:26:59;;;;;;;43.35;23.95;;;3.10;99.90;;;;;;5064176;28;20028;-76
2020/12/01 02:29:29;;;;;;;45.00;23.15;;;3.10;99.90;;;;;;5073173;28;20031;-76
2020/12/01 02:31:55;;;;;;;48.03;24.60;;;3.10;99.90;;;;;;5073420;28;20025;-76
2020/12/01 02:34:30;;;;;;;51.28;24.70;;;3.10;99.90;;;;;;5070323;28;20074;-75
2020/12/01 02:36:55;;;;;;;47.90;24.98;;;3.10;99.90;;;;;;5073870;28;20032;-75
2020/12/01 02:39:22;;;;;;;47.15;24.23;;;3.10;99.90;;;;;;5072949;28;20171;-76
2020/12/01 02:41:52;;;;;;;51.13;24.38;;;3.20;99.90;;;;;;5072038;28;20025;-76
2020/12/01 02:44:18;;;;;;;48.15;25.02;;;3.10;99.90;;;;;;5071873;28;20492;-76
2020/12/01 02:46:43;;;;;;;47.17;23.88;;;3.10;99.90;;;;;;5052887;28;20028;-76
2020/12/01 02:49:09;;;;;;;50.78;25.42;;;3.20;99.90;;;;;;5051626;28;20167;-76
2020/12/01 02:51:35;;;;;;;45.97;24.00;;;3.10;99.90;;;;;;5053009;28;20492;-76
2020/12/01 02:54:01;;;;;;;51.90;25.30;;;3.20;99.90;;;;;;5052695;28;20028;-76
2020/12/01 02:56:27;;;;;;;48.83;24.90;;;3.20;99.90;;;;;;5066624;28;20020;-76
2020/12/01 02:58:52;;;;;;;46.00;23.25;;;3.10;99.90;;;;;;5073042;28;20147;-76
2020/12/01 03:01:18;;;;;;;47.72;24.05;;;3.20;99.90;;;;;;5071962;28;20027;-76
2020/12/01 03:03:44;;;;;;;48.42;24.20;;;3.20;99.90;;;;;;5072702;28;20031;-76
2020/12/01 03:06:15;;;;;;;51.42;23.02;;;3.20;99.90;;;;;;5060780;28;20029;-76
2020/12/01 03:08:41;;;;;;;44.55;22.40;;;3.20;99.90;;;;;;5052428;28;20032;-76
2020/12/01 03:11:08;;;;;;;47.75;22.73;;;3.20;99.90;;;;;;5052675;28;20079;-76
2020/12/01 03:13:33;;;;;;;46.50;21.85;;;3.20;99.90;;;;;;5052600;28;20023;-76
2020/12/01 03:16:04;;;;;;;43.33;23.42;;;3.20;99.90;;;;;;5057969;28;20476;-76
2020/12/01 03:18:30;;;;;;;47.42;20.92;;;3.20;99.90;;;;;;5071110;28;20027;-76
2020/12/01 03:20:55;;;;;;;49.70;22.10;;;3.20;99.90;;;;;;5072196;28;20099;-76
2020/12/01 03:23:21;;;;;;;39.78;20.50;;;3.10;99.90;;;;;;5070911;28;20051;-76
2020/12/01 03:25:46;;;;;;;46.20;22.63;;;3.20;99.90;;;;;;5069260;28;20031;-76
2020/12/01 03:28:12;;;;;;;38.47;20.23;;;3.20;99.90;;;;;;5051578;28;20449;-76
2020/12/01 03:30:37;;;;;;;36.60;20.63;;;3.20;99.90;;;;;;5051344;28;20029;-76
2020/12/01 03:33:03;;;;;;;40.83;20.70;;;3.30;99.90;;;;;;5051549;28;20032;-76
2020/12/01 03:35:28;;;;;;;42.33;20.20;;;3.20;99.90;;;;;;5056255;28;20028;-76
2020/12/01 03:37:55;;;;;;;45.80;22.08;;;3.20;99.90;;;;;;5071817;28;20037;-76
2020/12/01 03:40:21;;;;;;;46.75;20.60;;;3.20;99.90;;;;;;5070713;28;20021;-76
2020/12/01 03:42:47;;;;;;;40.28;20.80;;;3.30;99.90;;;;;;5072048;28;20029;-76
2020/12/01 03:45:12;;;;;;;34.53;18.30;;;3.20;99.90;;;;;;5070670;28;20082;-76
2020/12/01 03:47:37;;;;;;;41.00;19.27;;;3.20;99.90;;;;;;5051911;28;20029;-76
2020/12/01 03:50:05;;;;;;;45.50;19.90;;;3.30;99.90;;;;;;5052216;28;20040;-76
2020/12/01 03:52:30;;;;;;;43.67;20.08;;;3.30;99.90;;;;;;5051848;28;20040;-76
2020/12/01 03:54:55;;;;;;;39.15;20.27;;;3.20;99.90;;;;;;5050432;28;20029;-76
2020/12/01 03:57:21;;;;;;;43.25;20.23;;;3.30;99.90;;;;;;5064981;28;20016;-76
2020/12/01 03:59:46;;;;;;;41.33;19.10;;;3.20;99.90;;;;;;5070503;28;20024;-76
2020/12/01 04:02:12;;;;;;;37.50;18.73;;;3.30;99.90;;;;;;5072087;28;20032;-76
2020/12/01 04:04:38;;;;;;;39.42;19.35;;;3.30;99.90;;;;;;5071208;28;20032;-76
2020/12/01 04:07:04;;;;;;;36.75;19.33;;;3.30;99.90;;;;;;5053740;28;20438;-76
2020/12/01 04:09:29;;;;;;;51.38;21.73;;;3.30;99.90;;;;;;5051722;28;20032;-76
2020/12/01 04:11:55;;;;;;;45.05;20.85;;;3.30;99.90;;;;;;5049791;28;20067;-76
2020/12/01 04:14:20;;;;;;;41.35;21.15;;;3.30;99.90;;;;;;5050102;28;20385;-75
2020/12/01 04:16:46;;;;;;;40.28;20.27;;;3.30;99.90;;;;;;5063273;28;20097;-75
2020/12/01 04:19:12;;;;;;;41.85;19.95;;;3.30;99.90;;;;;;5071416;28;20035;-76
2020/12/01 04:21:37;;;;;;;36.78;18.17;;;3.40;99.90;;;;;;5071016;28;20434;-76
2020/12/01 04:24:03;;;;;;;44.10;20.45;;;3.40;99.90;;;;;;5071081;28;20021;-76
2020/12/01 04:26:28;;;;;;;35.78;18.92;;;3.40;99.90;;;;;;5063638;28;20489;-76
2020/12/01 04:28:54;;;;;;;39.78;20.17;;;3.40;99.90;;;;;;5051434;28;20389;-76
2020/12/01 04:31:19;;;;;;;41.25;19.20;;;3.40;99.90;;;;;;5051373;28;20374;-76
2020/12/01 04:33:45;;;;;;;50.33;20.52;;;3.40;99.90;;;;;;5050568;28;20504;-76
2020/12/01 04:36:10;;;;;;;40.28;19.48;;;3.50;99.90;;;;;;5061323;28;20032;-76
2020/12/01 04:38:36;;;;;;;38.80;18.88;;;3.40;99.90;;;;;;5069946;28;20043;-76
2020/12/01 04:41:03;;;;;;;43.55;20.17;;;3.40;99.90;;;;;;5071178;28;20017;-76
2020/12/01 04:43:37;;;;;;;47.63;20.27;;;3.40;99.90;;;;;;5070435;28;20024;-76
2020/12/01 04:46:04;;;;;;;39.63;18.63;;;3.40;99.90;;;;;;5064326;28;20029;-76
2020/12/01 04:48:42;;;;;;;39.10;19.17;;;3.50;99.90;;;;;;5049689;28;20025;-75
2020/12/01 04:51:34;;;;;;;36.80;18.30;;;3.50;99.90;;;;;;5060943;28;20021;-76
2020/12/01 04:54:37;;;;;;;48.83;18.92;;;3.50;99.90;;;;;;5070673;28;20472;-76
2020/12/01 04:57:25;;;;;;;34.00;16.92;;;3.50;99.90;;;;;;5057709;28;20025;-76
2020/12/01 05:00:16;;;;;;;33.47;16.60;;;3.50;99.90;;;;;;5050927;28;20028;-76
2020/12/01 05:03:11;;;;;;;36.78;17.38;;;3.60;99.90;;;;;;5049577;28;20025;-76
2020/12/01 05:08:46;;;;;;;34.60;16.85;;;3.50;99.90;;;;;;5071239;28;20149;-76
2020/12/01 05:11:23;;;;;;;32.28;17.15;;;3.60;99.90;;;;;;5070730;28;20404;-76
2020/12/01 05:13:57;;;;;;;38.92;16.58;;;3.60;99.90;;;;;;5068829;28;20477;-76
2020/12/01 05:16:25;;;;;;;39.78;17.25;;;3.70;99.90;;;;;;5059977;28;20029;-76
2020/12/01 05:18:52;;;;;;;36.53;16.52;;;3.60;99.90;;;;;;5050616;28;20477;-76
2020/12/01 05:21:24;;;;;;;24.73;14.27;;;3.60;99.90;;;;;;5050591;28;20029;-76
2020/12/01 05:23:50;;;;;;;25.58;14.15;;;3.70;99.90;;;;;;5049972;28;20048;-76
2020/12/01 05:26:21;;;;;;;31.13;16.20;;;3.70;99.90;;;;;;5055561;28;20052;-76
2020/12/01 05:28:56;;;;;;;27.20;14.27;;;3.70;99.90;;;;;;5069101;28;20112;-76
2020/12/01 05:31:37;;;;;;;29.10;14.88;;;3.80;99.90;;;;;;5070641;28;20051;-76
2020/12/01 05:34:05;;;;;;;23.33;14.45;;;3.70;99.90;;;;;;5070367;28;20029;-76
2020/12/01 05:36:34;;;;;;;29.70;14.65;;;3.70;99.90;;;;;;5057108;28;20037;-76
2020/12/01 05:39:04;;;;;;;29.88;14.75;;;3.80;99.90;;;;;;5049222;28;20032;-76
2020/12/01 05:41:33;;;;;;;26.55;13.10;;;3.80;99.90;;;;;;5050530;28;20062;-76
2020/12/01 05:44:02;;;;;;;28.50;14.20;;;3.80;99.90;;;;;;5050254;28;20074;-75
2020/12/01 05:46:33;;;;;;;31.40;15.30;;;3.80;99.90;;;;;;5058455;28;20024;-76
2020/12/01 05:49:19;;;;;;;27.40;14.68;;;3.80;99.90;;;;;;5070304;28;20028;-76
2020/12/01 05:51:48;;;;;;;30.92;16.15;;;3.80;99.90;;;;;;5069855;28;20116;-76
2020/12/01 05:54:22;;;;;;;36.88;14.48;;;3.80;99.90;;;;;;5070379;28;20028;-76
2020/12/01 05:56:52;;;;;;;31.75;14.88;;;3.80;99.90;;;;;;5064256;28;20029;-76
2020/12/01 05:59:21;;;;;;;31.52;16.67;;;3.80;99.90;;;;;;5052754;28;20366;-76
2020/12/01 06:01:57;;;;;;;34.13;16.52;;;3.80;99.90;;;;;;5054029;28;20017;-76
2020/12/01 06:04:26;;;;;;;41.42;16.50;;;3.80;99.90;;;;;;5053878;28;20655;-76
2020/12/01 06:07:13;;;;;;;33.40;15.77;;;3.80;99.90;;;;;;5068016;28;20059;-76
2020/12/01 06:10:15;;;;;;;28.88;14.43;;;3.80;99.90;;;;;;5073932;28;20099;-76
2020/12/01 06:12:58;;;;;;;35.92;16.70;;;3.80;99.90;;;;;;5073641;28;20028;-76
2020/12/01 06:15:24;;;;;;;28.33;13.85;;;3.80;99.90;;;;;;5072885;28;20023;-76
2020/12/01 06:18:19;;;;;;;29.52;15.45;;;3.80;99.90;;;;;;5072554;28;20028;-76
2020/12/01 06:21:04;;;;;;;24.08;13.05;;;3.80;99.90;;;;;;5072225;28;20437;-76
2020/12/01 06:24:03;;;;;;;24.35;13.48;;;3.80;99.90;;;;;;5073724;28;20043;-76
2020/12/01 06:26:31;;;;;;;24.20;13.07;;;3.80;99.90;;;;;;5064798;28;20028;-76
2020/12/01 06:29:47;;;;;;;24.08;13.32;;;3.80;99.90;;;;;;5053907;28;20025;-75
2020/12/01 06:32:46;;;;;;;23.27;12.90;;;3.80;99.90;;;;;;5052481;28;20025;-76
2020/12/01 06:35:39;;;;;;;24.42;12.85;;;3.80;99.90;;;;;;5055025;28;20017;-76
2020/12/01 06:38:13;;;;;;;21.17;11.95;;;3.80;99.90;;;;;;5073313;28;20430;-76
2020/12/01 06:40:41;;;;;;;20.55;11.40;;;3.90;99.90;;;;;;5073433;28;20027;-76
2020/12/01 06:43:27;;;;;;;22.05;12.63;;;3.90;99.90;;;;;;5073090;28;20037;-76
2020/12/01 06:45:56;;;;;;;22.48;11.63;;;3.90;99.90;;;;;;5068088;28;20033;-76
2020/12/01 06:48:32;;;;;;;16.77;9.70;;;4.00;99.90;;;;;;5052851;28;20546;-76
2020/12/01 06:50:59;;;;;;;16.55;11.15;;;3.90;99.90;;;;;;5051955;28;20035;-76
2020/12/01 06:53:28;;;;;;;24.15;12.23;;;3.90;99.90;;;;;;5051670;28;20102;-76
2020/12/01 06:55:56;;;;;;;20.27;11.18;;;3.90;99.90;;;;;;5054793;28;20017;-76
2020/12/01 06:58:24;;;;;;;22.75;12.27;;;3.90;99.90;;;;;;5073182;28;20020;-76
2020/12/01 07:01:01;;;;;;;15.23;9.88;;;3.90;99.90;;;;;;5073077;28;20021;-76
2020/12/01 07:03:26;;;;;;;16.67;10.13;;;3.90;99.90;;;;;;5072954;28;20492;-76
2020/12/01 07:05:52;;;;;;;14.10;9.38;;;3.90;99.90;;;;;;5064636;28;20024;-76
2020/12/01 07:08:28;;;;;;;18.33;9.77;;;3.90;99.90;;;;;;5052926;28;20476;-76
2020/12/01 07:11:25;;;;;;;18.88;10.88;;;3.90;99.90;;;;;;5052865;28;20389;-76
2020/12/01 07:14:03;;;;;;;17.98;9.75;;;3.90;99.90;;;;;;5051230;28;20063;-76
2020/12/01 07:16:38;;;;;;;17.65;10.38;;;3.90;99.90;;;;;;5062080;28;20085;-76
2020/12/01 07:19:40;;;;;;;13.70;9.75;;;3.90;99.90;;;;;;5072300;28;20036;-76
2020/12/01 07:22:21;;;;;;;13.43;10.10;;;3.90;99.90;;;;;;5053632;28;20065;-76
2020/12/01 07:25:03;;;;;;;17.90;11.07;;;3.90;99.90;;;;;;5052341;28;20485;-76
2020/12/01 07:27:40;;;;;;;17.83;10.25;;;3.90;99.90;;;;;;5067474;28;20028;-76
2020/12/01 07:30:21;;;;;;;23.38;11.90;;;4.00;99.90;;;;;;5072572;28;20115;-76
2020/12/01 07:33:06;;;;;;;17.25;10.57;;;4.00;99.90;;;;;;5071009;28;20024;-76
2020/12/01 07:35:38;;;;;;;16.40;10.90;;;3.90;99.90;;;;;;5071506;28;20039;-76
2020/12/01 07:38:10;;;;;;;21.35;10.90;;;4.10;99.90;;;;;;5072659;28;20047;-76
2020/12/01 07:41:22;;;;;;;18.67;10.82;;;4.00;99.90;;;;;;5071099;28;20033;-76
2020/12/01 07:44:03;;;;;;;19.30;10.70;;;4.00;99.90;;;;;;5071515;28;20017;-76
2020/12/01 07:46:29;;;;;;;17.92;11.18;;;3.90;99.90;;;;;;5062232;28;20074;-76
2020/12/01 07:49:00;;;;;;;22.27;12.80;;;4.00;99.90;;;;;;5052231;28;20040;-76
2020/12/01 07:51:29;;;;;;;18.73;10.90;;;3.90;99.90;;;;;;5052544;28;20103;-76
2020/12/01 07:53:57;;;;;;;22.25;13.52;;;3.90;99.90;;;;;;5051315;28;20112;-76
2020/12/01 07:56:26;;;;;;;20.15;12.55;;;3.90;99.90;;;;;;5057438;28;20028;-76
2020/12/01 07:59:02;;;;;;;25.85;13.05;;;3.90;99.90;;;;;;5071950;28;20032;-76
2020/12/01 08:01:27;;;;;;;22.48;12.45;;;4.00;99.90;;;;;;5071748;28;20040;-76
2020/12/01 08:04:07;;;;;;;20.50;12.23;;;3.90;99.90;;;;;;5070232;28;20020;-76
2020/12/01 08:06:32;;;;;;;26.35;13.63;;;4.00;99.90;;;;;;5058539;28;20025;-76
2020/12/01 08:08:58;;;;;;;23.42;13.32;;;3.90;99.90;;;;;;5051432;28;20032;-76
2020/12/01 08:11:23;;;;;;;22.10;13.02;;;4.00;99.90;;;;;;5050251;28;20025;-76
2020/12/01 08:13:54;;;;;;;25.80;13.85;;;3.90;99.90;;;;;;5050967;28;20029;-76
2020/12/01 08:16:27;;;;;;;27.48;12.63;;;3.90;99.90;;;;;;5059079;28;20492;-76
2020/12/01 08:18:54;;;;;;;22.42;13.50;;;3.90;99.90;;;;;;5070774;28;20024;-75
2020/12/01 08:21:30;;;;;;;17.90;11.10;;;3.90;99.90;;;;;;5069879;28;20032;-76
2020/12/01 08:23:59;;;;;;;19.95;12.07;;;3.90;99.90;;;;;;5071266;28;20085;-76
2020/12/01 08:26:31;;;;;;;21.85;12.38;;;4.00;99.90;;;;;;5063533;28;20052;-77
2020/12/01 08:29:21;;;;;;;25.15;12.65;;;4.00;99.90;;;;;;5050162;28;20067;-77
2020/12/01 08:31:57;;;;;;;21.17;11.93;;;4.00;99.90;;;;;;5049592;28;20110;-76
2020/12/01 08:34:45;;;;;;;24.30;12.23;;;4.00;99.90;;;;;;5049622;28;20055;-77
2020/12/01 08:37:31;;;;;;;21.88;13.82;;;4.00;99.90;;;;;;5052346;28;20115;-76
2020/12/01 08:40:18;;;;;;;27.42;13.05;;;4.00;99.90;;;;;;5051155;28;20033;-77
2020/12/01 08:43:13;;;;;;;24.25;12.32;;;4.00;99.90;;;;;;5050792;28;20029;-77
2020/12/01 08:45:52;;;;;;;25.85;13.10;;;4.00;99.90;;;;;;5050783;28;20717;-76
2020/12/01 08:49:06;;;;;;;32.72;14.60;;;4.00;99.90;;;;;;5071014;28;20028;-76
2020/12/01 08:51:48;;;;;;;25.65;14.50;;;4.00;99.90;;;;;;5058332;28;20028;-76
2020/12/01 08:54:23;;;;;;;28.58;14.30;;;4.10;99.90;;;;;;5051085;28;20048;-76
2020/12/01 08:56:49;;;;;;;33.85;16.23;;;4.20;99.90;;;;;;5059026;28;20544;-77
2020/12/01 08:59:21;;;;;;;34.55;16.67;;;4.20;99.90;;;;;;5069273;28;20032;-76
2020/12/01 09:01:46;;;;;;;39.40;16.52;;;4.20;99.90;;;;;;5067573;28;20039;-76
2020/12/01 09:04:27;;;;;;;33.50;17.38;;;4.20;99.90;;;;;;5061411;28;20021;-76
2020/12/01 09:06:56;;;;;;;28.60;16.98;;;4.30;99.90;;;;;;5049230;28;20079;-77
2020/12/01 09:09:25;;;;;;;29.27;16.05;;;4.30;99.90;;;;;;5077521;23;20044;-80
2020/12/01 09:12:05;;;;;;;43.65;17.95;;;4.30;99.90;;;;;;5050028;28;20100;-79
2020/12/01 09:14:43;;;;;;;39.58;17.20;;;4.40;99.90;;;;;;5018471;28;20022;-80
2020/12/01 09:17:27;;;;;;;31.52;18.38;;;4.40;99.90;;;;;;5012191;28;20438;-80
2020/12/01 09:20:09;;;;;;;28.55;14.68;;;4.40;99.90;;;;;;5030493;28;20100;-80
2020/12/01 09:22:37;;;;;;;30.42;15.35;;;4.50;99.90;;;;;;5028105;28;20455;-80
2020/12/01 09:25:08;;;;;;;28.73;14.85;;;4.50;99.90;;;;;;5028521;28;20022;-80
2020/12/01 09:27:34;;;;;;;28.85;16.98;;;4.60;99.90;;;;;;5011288;28;20482;-80
2020/12/01 09:30:00;;;;;;;24.35;14.77;;;4.60;99.90;;;;;;5016141;28;20033;-80
2020/12/01 09:32:26;;;;;;;25.65;15.65;;;4.60;99.90;;;;;;5016699;28;20025;-80
2020/12/01 09:34:52;;;;;;;25.85;14.57;;;4.70;99.90;;;;;;5034505;28;20053;-80
2020/12/01 09:37:19;;;;;;;27.73;14.48;;;4.70;99.90;;;;;;5034622;28;20053;-80
2020/12/01 09:39:45;;;;;;;26.85;14.65;;;4.80;99.90;;;;;;5037061;28;20033;-80
2020/12/01 09:42:35;;;;;;;31.67;15.10;;;4.70;99.90;;;;;;5029842;28;20034;-81
2020/12/01 09:45:07;;;;;;;25.98;15.40;;;4.70;99.90;;;;;;5013762;28;20171;-80
2020/12/01 09:47:40;;;;;;;26.63;14.63;;;4.70;99.90;;;;;;4997537;28;20568;-80
2020/12/01 09:50:09;;;;;;;29.00;14.35;;;4.70;99.90;;;;;;4996218;28;20160;-80
2020/12/01 09:52:55;;;;;;;32.20;14.40;;;4.70;99.90;;;;;;4996310;28;20030;-80
2020/12/01 09:55:43;;;;;;;34.53;16.27;;;4.80;99.90;;;;;;5030943;28;20029;-80
2020/12/01 10:04:22;;;;;;;35.28;16.75;;;4.70;99.90;;;;;;5033772;28;20148;-80
2020/12/01 10:09:01;;;;;;;31.65;15.90;;;4.70;99.90;;;;;;5027024;28;20081;-81
2020/12/01 10:15:20;;;;;;;28.70;16.63;;;4.80;99.90;;;;;;5013700;28;20544;-81
2020/12/01 10:28:40;;;;;;;31.15;16.67;;;4.90;99.90;;;;;;5022221;28;20036;-81
2020/12/01 10:35:43;;;;;;;26.30;16.05;;;5.10;99.90;;;;;;5033403;28;20099;-80
2020/12/01 10:38:08;;;;;;;26.92;15.20;;;5.10;99.90;;;;;;5029494;28;20469;-80
2020/12/01 10:40:34;;;;;;;32.55;19.02;;;5.10;99.90;;;;;;5012419;28;20029;-80
2020/12/01 10:43:00;;;;;;;31.50;17.70;;;5.10;99.90;;;;;;5013035;28;20033;-80
2020/12/01 10:45:28;;;;;;;33.85;19.98;;;5.20;99.90;;;;;;5013104;28;20401;-80
2020/12/01 10:47:54;;;;;;;32.10;19.45;;;5.20;99.90;;;;;;5014214;28;20056;-80
2020/12/01 10:50:25;;;;;;;32.22;19.33;;;5.30;99.90;;;;;;5007087;28;20034;-80
2020/12/01 10:52:50;;;;;;;24.27;17.08;;;5.30;99.90;;;;;;5013014;28;20444;-82
2020/12/01 10:55:21;;;;;;;31.58;18.85;;;5.40;99.90;;;;;;5019473;28;20026;-81
2020/12/01 10:57:50;;;;;;;34.45;18.25;;;5.40;99.90;;;;;;5032732;28;20018;-81
2020/12/01 11:00:17;;;;;;;33.55;19.30;;;5.40;99.90;;;;;;5046276;28;20083;-80
2020/12/01 11:02:42;;;;;;;30.58;19.42;;;5.40;99.90;;;;;;5028670;28;20030;-81
2020/12/01 11:05:13;;;;;;;29.52;18.52;;;5.40;99.90;;;;;;5013069;28;20032;-81
2020/12/01 11:07:39;;;;;;;30.98;18.90;;;5.50;99.90;;;;;;5014935;28;20032;-81
2020/12/01 11:10:05;;;;;;;33.08;16.48;;;5.60;99.90;;;;;;5006929;28;20030;-87
2020/12/01 11:12:30;;;;;;;23.02;15.85;;;5.70;99.90;;;;;;5012612;28;20083;-82
2020/12/01 11:14:56;;;;;;;28.23;17.13;;;5.70;99.90;;;;;;5012581;28;20025;-80
2020/12/01 11:17:21;;;;;;;23.27;15.70;;;5.70;99.90;;;;;;5014345;28;20057;-80
2020/12/01 11:19:47;;;;;;;22.52;16.70;;;5.80;99.90;;;;;;5032049;28;20478;-80
2020/12/01 11:22:13;;;;;;;27.73;16.42;;;5.70;99.90;;;;;;5032417;28;20045;-80
2020/12/01 11:24:39;;;;;;;23.83;15.07;;;5.70;99.90;;;;;;5014440;28;20021;-81
2020/12/01 11:27:05;;;;;;;27.20;14.15;;;5.70;99.90;;;;;;5032308;28;20117;-80
2020/12/01 11:29:30;;;;;;;20.85;13.65;;;5.70;99.90;;;;;;4997789;28;20113;-81
2020/12/01 11:31:56;;;;;;;26.15;14.48;;;5.70;99.90;;;;;;5012661;28;20125;-81
2020/12/01 11:34:21;;;;;;;22.23;13.13;;;5.70;99.90;;;;;;5012361;28;20029;-80
2020/12/01 11:36:47;;;;;;;20.88;14.02;;;5.80;99.90;;;;;;4995127;28;20018;-81
2020/12/01 11:39:14;;;;;;;18.77;12.77;;;5.80;99.90;;;;;;5005890;28;20029;-81
2020/12/01 11:41:40;;;;;;;23.38;14.63;;;5.80;99.90;;;;;;5032629;28;20052;-80
2020/12/01 11:44:06;;;;;;;19.27;14.05;;;5.80;99.90;;;;;;5030565;28;20432;-81
2020/12/01 11:46:31;;;;;;;34.15;17.27;;;5.80;99.90;;;;;;5032295;28;20075;-82
2020/12/01 11:49:01;;;;;;;23.80;15.30;;;5.80;99.90;;;;;;5014018;28;20155;-80
2020/12/01 11:51:31;;;;;;;25.88;15.57;;;5.70;99.90;;;;;;5032062;28;20116;-81
2020/12/01 11:53:57;;;;;;;27.25;14.88;;;5.80;99.90;;;;;;5031854;28;20500;-79
2020/12/01 11:56:23;;;;;;;23.27;15.80;;;5.80;99.90;;;;;;4995884;28;20030;-79
2020/12/01 11:58:49;;;;;;;26.10;16.15;;;5.80;99.90;;;;;;4994220;28;20548;-80
2020/12/01 12:01:15;;;;;;;22.83;15.77;;;5.80;99.90;;;;;;4994442;28;20033;-79
2020/12/01 12:03:41;;;;;;;24.83;16.92;;;5.80;99.90;;;;;;5024100;28;20025;-79
2020/12/01 12:06:07;;;;;;;30.40;17.60;;;5.90;99.90;;;;;;5031759;28;20037;-79
2020/12/01 12:08:33;;;;;;;22.90;15.70;;;5.90;99.90;;;;;;5031553;28;20517;-79
2020/12/01 12:10:58;;;;;;;29.33;16.42;;;5.90;99.90;;;;;;5014103;28;20030;-79
2020/12/01 12:13:24;;;;;;;25.75;17.55;;;5.90;99.90;;;;;;5006223;28;20033;-79
2020/12/01 12:15:49;;;;;;;30.05;18.13;;;5.90;99.90;;;;;;5011751;28;20026;-79
2020/12/01 12:18:15;;;;;;;25.38;17.83;;;5.90;99.90;;;;;;5011443;28;20040;-79
2020/12/01 12:20:40;;;;;;;27.75;18.30;;;6.00;99.90;;;;;;5011770;28;20030;-79
2020/12/01 12:23:06;;;;;;;26.20;19.35;;;6.00;99.90;;;;;;5013984;28;20563;-80
2020/12/01 12:25:31;;;;;;;24.95;17.23;;;6.00;99.90;;;;;;5031200;28;20056;-81
2020/12/01 12:27:57;;;;;;;25.73;18.02;;;6.00;99.90;;;;;;5031670;28;20034;-81
2020/12/01 12:30:22;;;;;;;37.97;19.15;;;6.00;99.90;;;;;;5031092;28;20025;-78
2020/12/01 12:32:48;;;;;;;23.13;17.17;;;5.90;99.90;;;;;;5025549;28;20041;-81
2020/12/01 12:35:13;;;;;;;27.48;19.23;;;6.00;99.90;;;;;;4993959;28;20033;-81
2020/12/01 12:37:39;;;;;;;34.92;18.02;;;5.90;99.90;;;;;;4994049;28;20498;-80
2020/12/01 12:40:06;;;;;;;34.38;18.75;;;6.00;99.90;;;;;;5011340;28;20512;-80
2020/12/01 12:42:31;;;;;;;32.92;20.95;;;5.90;99.90;;;;;;5012064;28;20087;-80
2020/12/01 12:44:57;;;;;;;28.08;20.42;;;5.90;99.90;;;;;;5013202;28;20037;-80
2020/12/01 12:47:23;;;;;;;35.97;20.60;;;5.90;99.90;;;;;;5013104;28;20481;-80
2020/12/01 12:49:48;;;;;;;35.38;21.92;;;5.90;99.90;;;;;;5030869;28;20037;-82
2020/12/01 12:52:15;;;;;;;32.63;21.50;;;5.90;99.90;;;;;;5030685;28;20103;-82
2020/12/01 12:54:40;;;;;;;40.58;23.55;;;5.90;99.90;;;;;;4997630;28;20486;-81
2020/12/01 12:57:06;;;;;;;32.22;21.75;;;5.90;99.90;;;;;;5011075;28;20076;-81
2020/12/01 12:59:32;;;;;;;40.92;23.77;;;5.90;99.90;;;;;;5011005;28;20022;-81
2020/12/01 13:01:57;;;;;;;36.92;23.20;;;5.80;99.90;;;;;;5011093;28;20080;-80
2020/12/01 13:04:23;;;;;;;37.25;23.73;;;5.90;99.90;;;;;;5028903;28;20029;-80
2020/12/01 13:06:48;;;;;;;36.97;24.50;;;5.80;99.90;;;;;;5013279;28;20017;-80
2020/12/01 13:09:14;;;;;;;50.05;27.88;;;5.80;99.90;;;;;;5030603;28;20033;-80
2020/12/01 13:11:39;;;;;;;44.10;26.42;;;6.00;99.90;;;;;;5030565;28;20033;-81
2020/12/01 13:14:05;;;;;;;43.80;26.63;;;5.80;99.90;;;;;;4999593;28;20049;-80
2020/12/01 13:16:31;;;;;;;46.28;27.48;;;5.80;99.90;;;;;;5028237;28;20402;-80
2020/12/01 13:18:56;;;;;;;46.55;28.92;;;5.80;99.90;;;;;;5029408;28;20064;-80
2020/12/01 13:21:22;;;;;;;47.00;29.75;;;5.70;99.90;;;;;;5030235;28;20026;-81
2020/12/01 13:23:48;;;;;;;55.05;29.42;;;5.80;99.90;;;;;;5029561;28;20541;-80
2020/12/01 13:26:20;;;;;;;48.60;28.58;;;5.90;99.90;;;;;;5012620;28;20031;-80